createdAt,value
2018-12-03T00:01:26.313Z,98905.30
2018-12-03T00:04:32.999Z,98894.98
2018-12-03T00:07:04.058Z,98885.22
2018-12-03T00:09:35.012Z,98877.58
2018-12-03T00:12:06.023Z,98870.23
2018-12-03T00:14:36.932Z,98877.77
2018-12-03T00:17:07.833Z,98874.52
2018-12-03T00:19:38.458Z,98869.02
2018-12-03T00:22:09.326Z,98873.67
2018-12-03T00:24:40.050Z,98877.41
2018-12-03T00:27:10.904Z,98874.80
2018-12-03T00:29:41.720Z,98878.59
2018-12-03T00:32:12.620Z,98881.59
2018-12-03T00:34:43.655Z,98880.19
2018-12-03T00:37:14.341Z,98886.70
2018-12-03T00:39:45.271Z,98882.23
2018-12-03T00:42:16.710Z,98887.34
2018-12-03T00:44:47.686Z,98890.41
2018-12-03T00:47:18.511Z,98886.32
2018-12-03T00:49:49.270Z,98884.07
2018-12-03T00:52:20.020Z,98886.60
2018-12-03T00:54:50.788Z,98890.59
2018-12-03T00:57:21.648Z,98897.38
2018-12-03T00:59:52.482Z,98902.67
2018-12-03T01:02:25.347Z,98899.88
2018-12-03T01:04:56.524Z,98907.59
2018-12-03T01:07:27.382Z,98902.84
2018-12-03T01:09:58.241Z,98909.75
2018-12-03T01:12:28.998Z,98894.84
2018-12-03T01:14:59.691Z,98888.58
2018-12-03T01:17:30.522Z,98883.08
2018-12-03T01:20:01.465Z,98889.59
2018-12-03T01:22:32.278Z,98887.26
2018-12-03T01:25:03.201Z,98880.08
2018-12-03T01:27:34.357Z,98879.61
2018-12-03T01:30:07.464Z,98870.70
2018-12-03T01:32:38.317Z,98875.64
2018-12-03T01:35:11.328Z,98876.09
2018-12-03T01:37:42.251Z,98866.86
2018-12-03T01:40:14.788Z,98874.47
2018-12-03T01:42:45.486Z,98869.23
2018-12-03T01:45:16.283Z,98866.06
2018-12-03T01:47:46.958Z,98861.18
2018-12-03T01:50:17.559Z,98863.94
2018-12-03T01:52:48.364Z,98864.28
2018-12-03T01:55:19.523Z,98864.84
2018-12-03T01:57:50.414Z,98869.10
2018-12-03T02:00:21.754Z,98866.82
2018-12-03T02:02:52.598Z,98873.93
2018-12-03T02:05:23.504Z,98880.39
2018-12-03T02:07:54.326Z,98883.19
2018-12-03T02:10:25.159Z,98877.97
2018-12-03T02:12:55.893Z,98880.86
2018-12-03T02:15:26.947Z,98875.76
2018-12-03T02:17:57.711Z,98871.11
2018-12-03T02:20:28.477Z,98873.90
2018-12-03T02:22:59.413Z,98868.68
2018-12-03T02:25:30.205Z,98866.46
2018-12-03T02:28:01.252Z,98859.20
2018-12-03T02:30:32.099Z,98858.36
2018-12-03T02:33:02.801Z,98856.30
2018-12-03T02:35:33.594Z,98852.12
2018-12-03T02:38:04.554Z,98841.50
2018-12-03T02:40:35.935Z,98847.45
2018-12-03T02:43:06.831Z,98844.97
2018-12-03T02:45:37.835Z,98850.48
2018-12-03T02:48:08.802Z,98848.05
2018-12-03T02:50:39.673Z,98840.97
2018-12-03T02:53:10.358Z,98846.56
2018-12-03T02:55:41.345Z,98846.05
2018-12-03T02:58:12.281Z,98837.48
2018-12-03T03:00:43.545Z,98830.67
2018-12-03T03:03:14.303Z,98825.45
2018-12-03T03:05:45.084Z,98822.92
2018-12-03T03:08:16.032Z,98813.91
2018-12-03T03:10:46.841Z,98818.53
2018-12-03T03:13:17.790Z,98812.77
2018-12-03T03:15:48.555Z,98805.48
2018-12-03T03:18:19.463Z,98798.91
2018-12-03T03:20:50.224Z,98798.47
2018-12-03T03:23:21.241Z,98792.10
2018-12-03T03:25:51.862Z,98795.70
2018-12-03T03:28:22.666Z,98780.83
2018-12-03T03:30:53.544Z,98774.04
2018-12-03T03:33:24.244Z,98774.37
2018-12-03T03:35:54.927Z,98788.08
2018-12-03T03:38:25.986Z,98796.48
2018-12-03T03:40:56.779Z,98793.14
2018-12-03T03:43:27.880Z,98790.48
2018-12-03T03:45:58.675Z,98794.34
2018-12-03T03:48:29.360Z,98779.09
2018-12-03T03:51:00.166Z,98773.84
2018-12-03T03:53:31.116Z,98760.95
2018-12-03T03:56:02.046Z,98763.97
2018-12-03T03:58:32.938Z,98756.14
2018-12-03T04:01:03.563Z,98749.08
2018-12-03T04:03:35.182Z,98749.61
2018-12-03T04:06:06.109Z,98740.16
2018-12-03T04:08:37.057Z,98728.47
2018-12-03T04:11:07.977Z,98722.53
2018-12-03T04:13:38.773Z,98718.62
2018-12-03T04:16:09.583Z,98731.01
2018-12-03T04:18:40.575Z,98731.97
2018-12-03T04:21:11.180Z,98736.42
2018-12-03T04:23:42.019Z,98742.80
2018-12-03T04:26:12.906Z,98746.39
2018-12-03T04:28:44.652Z,98743.40
2018-12-03T04:31:15.315Z,98741.93
2018-12-03T04:33:47.107Z,98742.97
2018-12-03T04:36:18.217Z,98744.28
2018-12-03T04:38:48.889Z,98754.38
2018-12-03T04:41:19.795Z,98746.27
2018-12-03T04:43:50.734Z,98752.38
2018-12-03T04:46:21.528Z,98760.41
2018-12-03T04:48:52.340Z,98760.06
2018-12-03T04:51:24.121Z,98767.63
2018-12-03T04:53:54.772Z,98764.75
2018-12-03T04:56:26.649Z,98772.58
2018-12-03T04:58:57.589Z,98780.64
2018-12-03T05:01:28.660Z,98788.31
2018-12-03T05:03:59.559Z,98796.33
2018-12-03T05:06:30.562Z,98797.37
2018-12-03T05:09:01.339Z,98792.27
2018-12-03T05:11:32.315Z,98800.55
2018-12-03T05:14:03.158Z,98792.10
2018-12-03T05:16:33.966Z,98787.19
2018-12-03T05:19:05.019Z,98791.21
2018-12-03T05:21:35.777Z,98788.80
2018-12-03T05:24:06.680Z,98790.02
2018-12-03T05:26:38.155Z,98783.80
2018-12-03T05:29:09.350Z,98782.33
2018-12-03T05:31:40.284Z,98776.16
2018-12-03T05:34:11.421Z,98769.97
2018-12-03T05:36:42.423Z,98769.41
2018-12-03T05:39:13.452Z,98760.66
2018-12-03T05:41:44.875Z,98755.88
2018-12-03T05:44:15.981Z,98760.75
2018-12-03T05:46:47.073Z,98761.66
2018-12-03T05:49:18.058Z,98771.58
2018-12-03T05:51:48.776Z,98779.08
2018-12-03T05:54:19.561Z,98773.88
2018-12-03T05:56:50.391Z,98787.95
2018-12-03T05:59:21.357Z,98783.59
2018-12-03T06:01:52.177Z,98784.31
2018-12-03T06:04:23.506Z,98771.36
2018-12-03T06:06:54.342Z,98781.03
2018-12-03T06:09:25.501Z,98795.65
2018-12-03T06:11:56.457Z,98793.84
2018-12-03T06:14:27.323Z,98781.95
2018-12-03T06:16:58.268Z,98795.02
2018-12-03T06:19:28.971Z,98790.64
2018-12-03T06:21:59.822Z,98802.22
2018-12-03T06:24:30.533Z,98807.05
2018-12-03T06:27:01.434Z,98805.03
2018-12-03T06:29:32.191Z,98801.29
2018-12-03T06:32:03.221Z,98805.12
2018-12-03T06:34:34.065Z,98809.06
2018-12-03T06:37:04.982Z,98811.08
2018-12-03T06:39:35.767Z,98818.39
2018-12-03T06:42:06.713Z,98818.31
2018-12-03T06:44:37.837Z,98821.87
2018-12-03T06:47:11.108Z,98824.83
2018-12-03T06:49:41.979Z,98818.69
2018-12-03T06:52:12.744Z,98825.84
2018-12-03T06:54:43.575Z,98827.52
2018-12-03T06:57:14.216Z,98822.71
2018-12-03T06:59:44.875Z,98821.56
2018-12-03T07:02:15.588Z,98817.27
2018-12-03T07:04:46.408Z,98813.67
2018-12-03T07:07:17.094Z,98807.31
2018-12-03T07:09:48.721Z,98803.55
2018-12-03T07:12:19.554Z,98807.16
2018-12-03T07:14:50.272Z,98811.70
2018-12-03T07:17:21.119Z,98803.55
2018-12-03T07:19:51.998Z,98802.29
2018-12-03T07:22:23.255Z,98801.09
2018-12-03T07:24:54.632Z,98806.09
2018-12-03T07:27:25.368Z,98804.16
2018-12-03T07:29:56.653Z,98804.69
2018-12-03T07:32:27.508Z,98804.72
2018-12-03T07:34:59.817Z,98801.02
2018-12-03T07:37:30.609Z,98800.84
2018-12-03T07:40:01.480Z,98802.21
2018-12-03T07:42:32.209Z,98792.05
2018-12-03T07:45:04.268Z,98784.84
2018-12-03T07:47:35.474Z,98782.29
2018-12-03T07:50:08.363Z,98779.44
2018-12-03T07:52:39.112Z,98770.55
2018-12-03T07:55:15.972Z,98777.67
2018-12-03T07:58:00.664Z,98779.48
2018-12-03T08:00:36.021Z,98787.45
2018-12-03T08:03:07.649Z,98787.09
2018-12-03T08:05:39.818Z,98791.41
2018-12-03T08:08:11.045Z,98795.61
2018-12-03T08:10:43.966Z,98804.09
2018-12-03T08:13:16.205Z,98790.83
2018-12-03T08:15:47.538Z,98793.23
2018-12-03T08:18:22.227Z,98799.19
2018-12-03T08:21:01.854Z,98796.69
2018-12-03T08:23:39.494Z,98791.68
2018-12-03T08:26:12.514Z,98787.08
2018-12-03T08:28:44.325Z,98788.43
2018-12-03T08:31:16.450Z,98783.58
2018-12-03T08:33:48.653Z,98781.70
2018-12-03T08:36:20.831Z,98788.17
2018-12-03T08:38:52.841Z,98790.80
2018-12-03T08:41:24.098Z,98793.77
2018-12-03T08:43:55.941Z,98803.52
2018-12-03T08:46:27.952Z,98802.33
2018-12-03T08:48:59.606Z,98802.92
2018-12-03T08:51:31.156Z,98792.81
2018-12-03T08:54:02.662Z,98798.17
2018-12-03T08:56:34.730Z,98804.27
2018-12-03T08:59:07.666Z,98804.48
2018-12-03T09:01:39.592Z,98807.95
2018-12-03T09:04:19.259Z,98811.73
2018-12-03T09:06:50.702Z,98814.73
2018-12-03T09:09:22.019Z,98809.00
2018-12-03T09:11:54.314Z,98807.69
2018-12-03T09:14:32.867Z,98798.89
2018-12-03T09:17:04.175Z,98800.31
2018-12-03T09:19:35.621Z,98794.95
2018-12-03T09:22:06.916Z,98793.05
2018-12-03T09:24:38.223Z,98792.92
2018-12-03T09:27:10.040Z,98790.03
2018-12-03T09:29:43.255Z,98781.50
2018-12-03T09:32:14.668Z,98782.45
2018-12-03T09:34:46.243Z,98781.25
2018-12-03T09:37:17.519Z,98778.84
2018-12-03T09:39:52.214Z,98782.53
2018-12-03T09:42:23.749Z,98781.17
2018-12-03T09:44:55.237Z,98781.13
2018-12-03T09:47:26.763Z,98777.53
2018-12-03T09:49:58.543Z,98770.12
2018-12-03T09:52:30.247Z,98772.20
2018-12-03T09:55:02.054Z,98773.38
2018-12-03T09:57:33.630Z,98772.31
2018-12-03T10:00:05.336Z,98766.16
2018-12-03T10:02:39.266Z,98773.28
2018-12-03T10:05:12.000Z,98772.50
2018-12-03T10:07:43.121Z,98764.58
2018-12-03T10:10:16.727Z,98758.86
2018-12-03T10:12:48.229Z,98751.34
2018-12-03T10:15:19.868Z,98749.33
2018-12-03T10:17:53.538Z,98750.33
2018-12-03T10:20:25.571Z,98743.80
2018-12-03T10:22:56.394Z,98736.20
2018-12-03T10:25:27.512Z,98737.74
2018-12-03T10:28:03.059Z,98716.03
2018-12-03T10:30:34.168Z,98711.97
2018-12-03T10:33:05.110Z,98705.77
2018-12-03T10:35:39.452Z,98697.16
2018-12-03T10:38:19.439Z,98700.91
2018-12-03T10:41:03.133Z,98711.95
2018-12-03T10:43:34.824Z,98727.38
2018-12-03T10:46:06.336Z,98716.78
2018-12-03T10:48:37.887Z,98715.47
2018-12-03T10:51:18.877Z,98712.72
2018-12-03T10:53:51.849Z,98707.59
2018-12-03T10:56:24.075Z,98701.38
2018-12-03T10:58:56.184Z,98695.31
2018-12-03T11:01:27.623Z,98698.13
2018-12-03T11:04:01.021Z,98696.69
2018-12-03T11:06:32.271Z,98695.89
2018-12-03T11:09:03.404Z,98704.07
2018-12-03T11:11:34.892Z,98704.05
2018-12-03T11:14:09.266Z,98699.04
2018-12-03T11:16:41.479Z,98698.14
2018-12-03T11:19:12.847Z,98692.64
2018-12-03T11:21:44.619Z,98690.52
2018-12-03T11:24:18.666Z,98680.36
2018-12-03T11:26:53.475Z,98672.38
2018-12-03T11:29:24.670Z,98669.06
2018-12-03T11:31:56.827Z,98667.66
2018-12-03T11:34:28.336Z,98672.05
2018-12-03T11:37:03.744Z,98669.61
2018-12-03T11:39:47.113Z,98665.73
2018-12-03T11:42:18.363Z,98666.20
2018-12-03T11:44:51.425Z,98661.22
2018-12-03T11:47:22.907Z,98649.97
2018-12-03T11:49:53.962Z,98646.94
2018-12-03T11:52:25.740Z,98662.73
2018-12-03T11:54:57.295Z,98663.48
2018-12-03T11:57:28.827Z,98663.67
2018-12-03T12:00:00.621Z,98660.96
2018-12-03T12:02:32.674Z,98670.16
2018-12-03T12:05:07.644Z,98666.31
2018-12-03T12:07:42.391Z,98670.98
2018-12-03T12:10:11.754Z,98669.75
2018-12-03T12:12:43.990Z,98666.58
2018-12-03T12:15:15.812Z,98663.00
2018-12-03T12:17:47.238Z,98659.70
2018-12-03T12:20:19.248Z,98651.13
2018-12-03T12:22:52.297Z,98647.41
2018-12-03T12:25:24.202Z,98639.28
2018-12-03T12:27:59.823Z,98630.70
2018-12-03T12:30:31.961Z,98629.25
2018-12-03T12:33:05.290Z,98620.80
2018-12-03T12:35:38.152Z,98613.56
2018-12-03T12:38:09.075Z,98610.51
2018-12-03T12:40:41.518Z,98601.63
2018-12-03T12:43:12.776Z,98603.95
2018-12-03T12:46:20.612Z,98596.45
2018-12-03T12:48:52.390Z,98583.64
2018-12-03T12:51:23.938Z,98575.69
2018-12-03T12:53:55.091Z,98582.65
2018-12-03T12:56:26.094Z,98587.12
2018-12-03T12:58:57.438Z,98586.02
2018-12-03T13:01:29.339Z,98589.66
2018-12-03T13:04:01.721Z,98601.45
2018-12-03T13:06:32.915Z,98595.50
2018-12-03T13:09:05.911Z,98600.94
2018-12-03T13:11:37.752Z,98599.43
2018-12-03T13:14:11.791Z,98606.20
2018-12-03T13:16:43.083Z,98607.15
2018-12-03T13:19:14.044Z,98600.70
2018-12-03T13:21:45.836Z,98601.44
2018-12-03T13:24:18.242Z,98606.08
2018-12-03T13:26:49.858Z,98606.95
2018-12-03T13:29:21.211Z,98597.89
2018-12-03T13:31:52.948Z,98593.66
2018-12-03T13:34:23.963Z,98598.77
2018-12-03T13:36:55.734Z,98596.20
2018-12-03T13:39:26.869Z,98590.25
2018-12-03T13:41:58.495Z,98595.73
2018-12-03T13:44:29.967Z,98602.38
2018-12-03T13:47:01.331Z,98601.24
2018-12-03T13:49:32.492Z,98592.88
2018-12-03T13:52:03.909Z,98602.07
2018-12-03T13:54:35.278Z,98608.75
2018-12-03T13:57:06.871Z,98606.48
2018-12-03T13:59:38.119Z,98607.95
2018-12-03T14:02:10.976Z,98612.36
2018-12-03T14:04:43.146Z,98623.20
2018-12-03T14:07:34.370Z,98623.01
2018-12-03T14:12:00.788Z,98624.04
2018-12-03T14:14:55.173Z,98615.83
2018-12-03T14:17:51.140Z,98616.77
2018-12-03T14:20:23.784Z,98626.41
2018-12-03T14:23:01.277Z,98626.41
2018-12-03T14:25:33.146Z,98629.52
2018-12-03T14:28:07.199Z,98636.56
2018-12-03T14:30:38.838Z,98642.29
2018-12-03T14:33:11.130Z,98639.33
2018-12-03T14:35:42.946Z,98634.55
2018-12-03T14:38:15.201Z,98624.66
2018-12-03T14:40:47.014Z,98631.22
2018-12-03T14:43:18.523Z,98632.67
2018-12-03T14:45:50.251Z,98628.87
2018-12-03T14:48:22.973Z,98629.83
2018-12-03T14:50:55.749Z,98632.99
2018-12-03T14:53:27.229Z,98640.42
2018-12-03T14:55:58.397Z,98637.71
2018-12-03T14:58:30.339Z,98638.83
2018-12-03T15:01:01.986Z,98647.19
2018-12-03T15:03:33.690Z,98646.71
2018-12-03T15:06:05.004Z,98650.42
2018-12-03T15:08:37.254Z,98650.06
2018-12-03T15:11:08.254Z,98649.83
2018-12-03T15:13:40.173Z,98650.20
2018-12-03T15:16:11.975Z,98655.59
2018-12-03T15:18:43.076Z,98654.30
2018-12-03T15:21:14.603Z,98659.83
2018-12-03T15:23:46.528Z,98658.53
2018-12-03T15:26:18.045Z,98666.69
2018-12-03T15:28:50.261Z,98663.50
2018-12-03T15:31:21.965Z,98655.62
2018-12-03T15:33:53.969Z,98653.55
2018-12-03T15:36:27.551Z,98653.19
2018-12-03T15:38:59.571Z,98647.61
2018-12-03T15:41:33.092Z,98654.78
2018-12-03T15:44:04.911Z,98657.31
2018-12-03T15:46:37.049Z,98652.05
2018-12-03T15:49:09.100Z,98656.97
2018-12-03T15:51:42.039Z,98647.83
2018-12-03T15:54:15.739Z,98654.63
2018-12-03T15:56:48.970Z,98656.82
2018-12-03T15:59:21.661Z,98659.69
2018-12-03T16:01:54.112Z,98665.45
2018-12-03T16:04:27.779Z,98671.39
2018-12-03T16:07:02.172Z,98674.86
2018-12-03T16:09:34.697Z,98674.86
2018-12-03T16:12:08.864Z,98680.21
2018-12-03T16:14:42.202Z,98683.44
2018-12-03T16:17:15.230Z,98681.09
2018-12-03T16:19:47.662Z,98678.10
2018-12-03T16:22:20.502Z,98677.63
2018-12-03T16:24:53.435Z,98665.68
2018-12-03T16:27:28.217Z,98660.63
2018-12-03T16:30:09.154Z,98659.31
2018-12-03T16:32:53.433Z,98657.40
2018-12-03T16:35:30.972Z,98659.45
2018-12-03T16:40:54.063Z,98654.34
2018-12-03T16:43:26.806Z,98666.06
2018-12-03T16:45:59.554Z,98664.31
2018-12-03T16:48:32.273Z,98662.91
2018-12-03T16:51:05.357Z,98663.28
2018-12-03T16:53:38.275Z,98662.20
2018-12-03T16:56:10.991Z,98662.94
2018-12-03T16:58:45.408Z,98657.83
2018-12-03T17:01:18.349Z,98663.41
2018-12-03T17:03:51.453Z,98662.34
2018-12-03T17:06:25.775Z,98654.61
2018-12-03T17:08:58.915Z,98649.59
2018-12-03T17:11:31.580Z,98640.18
2018-12-03T17:14:11.656Z,98630.73
2018-12-03T17:16:45.477Z,98614.25
2018-12-03T17:19:19.806Z,98610.22
2018-12-03T17:22:05.217Z,98607.35
2018-12-03T17:24:40.282Z,98596.34
2018-12-03T17:27:13.838Z,98587.12
2018-12-03T17:29:46.833Z,98570.67
2018-12-03T17:32:21.384Z,98574.93
2018-12-03T17:34:54.411Z,98572.36
2018-12-03T17:37:27.825Z,98568.44
2018-12-03T17:40:00.621Z,98569.98
2018-12-03T17:42:33.439Z,98548.24
2018-12-03T17:45:07.920Z,98543.50
2018-12-03T17:47:40.974Z,98549.60
2018-12-03T17:50:15.079Z,98556.91
2018-12-03T17:52:47.994Z,98558.83
2018-12-03T17:55:20.886Z,98562.06
2018-12-03T17:57:54.001Z,98561.70
2018-12-03T18:00:27.047Z,98556.11
2018-12-03T18:03:00.471Z,98561.22
2018-12-03T18:05:33.508Z,98568.25
2018-12-03T18:08:06.063Z,98573.63
2018-12-03T18:10:38.940Z,98582.30
2018-12-03T18:13:12.249Z,98580.00
2018-12-03T18:15:45.102Z,98584.17
2018-12-03T18:18:18.569Z,98584.88
2018-12-03T18:20:51.377Z,98585.67
2018-12-03T18:23:24.886Z,98578.03
2018-12-03T18:25:58.211Z,98571.13
2018-12-03T18:28:32.483Z,98579.91
2018-12-03T18:31:05.678Z,98595.41
2018-12-03T18:33:40.741Z,98602.20
2018-12-03T18:36:14.082Z,98612.92
2018-12-03T18:38:46.814Z,98613.20
2018-12-03T18:41:19.474Z,98620.23
2018-12-03T18:43:52.461Z,98623.20
2018-12-03T18:46:24.901Z,98623.80
2018-12-03T18:49:06.881Z,98619.53
2018-12-03T18:51:39.823Z,98623.23
2018-12-03T18:54:13.211Z,98623.71
2018-12-03T18:56:46.892Z,98622.48
2018-12-03T18:59:21.856Z,98609.59
2018-12-03T19:04:41.158Z,98616.63
2018-12-03T19:07:13.728Z,98616.02
2018-12-03T19:09:46.995Z,98620.89
2018-12-03T19:12:19.647Z,98621.55
2018-12-03T19:14:53.745Z,98625.72
2018-12-03T19:17:26.651Z,98625.02
2018-12-03T19:19:59.615Z,98619.95
2018-12-03T19:22:33.353Z,98627.36
2018-12-03T19:25:06.059Z,98642.16
2018-12-03T19:27:39.133Z,98645.81
2018-12-03T19:30:15.069Z,98651.53
2018-12-03T19:32:47.688Z,98655.27
2018-12-03T19:35:21.638Z,98656.92
2018-12-03T19:37:55.427Z,98652.04
2018-12-03T19:40:28.521Z,98656.58
2018-12-03T19:43:01.156Z,98655.00
2018-12-03T19:45:34.287Z,98639.72
2018-12-03T19:48:07.331Z,98633.69
2018-12-03T19:50:40.056Z,98625.86
2018-12-03T19:53:13.624Z,98614.44
2018-12-03T19:55:48.253Z,98604.93
2018-12-03T19:58:28.283Z,98599.40
2018-12-03T20:01:02.098Z,98591.80
2018-12-03T20:03:35.001Z,98594.05
2018-12-03T20:06:08.331Z,98586.17
2018-12-03T20:08:41.732Z,98588.48
2018-12-03T20:11:14.816Z,98582.23
2018-12-03T20:13:47.860Z,98585.85
2018-12-03T20:16:20.956Z,98588.44
2018-12-03T20:18:54.491Z,98584.04
2018-12-03T20:21:28.743Z,98587.55
2018-12-03T20:24:08.221Z,98598.41
2018-12-03T20:26:50.417Z,98598.44
2018-12-03T20:29:40.507Z,98609.62
2018-12-03T20:32:39.967Z,98612.86
2018-12-03T20:35:23.515Z,98606.81
2018-12-03T20:38:14.225Z,98598.67
2018-12-03T20:41:06.432Z,98583.92
2018-12-03T20:43:40.794Z,98590.77
2018-12-03T20:47:25.664Z,98586.98
2018-12-03T20:51:08.651Z,98581.63
2018-12-03T20:53:49.653Z,98585.73
2018-12-03T20:56:22.334Z,98585.23
2018-12-03T20:58:55.427Z,98576.56
2018-12-03T21:01:29.535Z,98571.69
2018-12-03T21:04:02.268Z,98573.00
2018-12-03T21:06:35.952Z,98580.83
2018-12-03T21:09:09.604Z,98578.91
2018-12-03T21:11:42.265Z,98569.88
2018-12-03T21:14:20.133Z,98568.70
2018-12-03T21:16:51.508Z,98572.91
2018-12-03T21:19:24.655Z,98572.91
2018-12-03T21:21:59.668Z,98579.95
2018-12-03T21:24:33.351Z,98579.83
2018-12-03T21:27:07.731Z,98586.88
2018-12-03T21:29:41.150Z,98586.51
2018-12-03T21:32:15.901Z,98584.86
2018-12-03T21:34:49.654Z,98582.48
2018-12-03T21:37:24.067Z,98575.80
2018-12-03T21:39:59.819Z,98586.17
2018-12-03T21:42:39.731Z,98590.60
2018-12-03T21:45:16.110Z,98600.71
2018-12-03T21:47:52.305Z,98590.23
2018-12-03T21:50:26.672Z,98582.61
2018-12-03T21:53:04.212Z,98582.45
2018-12-03T21:55:41.723Z,98583.28
2018-12-03T21:58:16.725Z,98580.91
2018-12-03T22:00:50.763Z,98590.44
2018-12-03T22:03:24.709Z,98578.75
2018-12-03T22:05:58.466Z,98586.38
2018-12-03T22:08:33.183Z,98583.52
2018-12-03T22:11:07.991Z,98585.41
2018-12-03T22:13:41.670Z,98582.78
2018-12-03T22:16:15.169Z,98589.44
2018-12-03T22:18:50.858Z,98590.14
2018-12-03T22:21:26.413Z,98581.80
2018-12-03T22:24:00.739Z,98568.39
2018-12-03T22:26:35.430Z,98566.27
2018-12-03T22:29:08.193Z,98573.16
2018-12-03T22:31:39.980Z,98580.83
2018-12-03T22:34:12.095Z,98580.73
2018-12-03T22:36:45.802Z,98579.32
2018-12-03T22:39:18.615Z,98579.45
2018-12-03T22:41:52.932Z,98574.41
2018-12-03T22:44:24.143Z,98566.55
2018-12-03T22:46:56.039Z,98557.48
2018-12-03T22:49:28.846Z,98552.97
2018-12-03T22:52:00.565Z,98550.55
2018-12-03T22:54:33.051Z,98549.84
2018-12-03T22:57:05.991Z,98547.88
2018-12-03T22:59:42.728Z,98552.70
2018-12-03T23:02:14.885Z,98544.78
2018-12-03T23:04:46.386Z,98544.27
2018-12-03T23:07:20.198Z,98544.03
2018-12-03T23:09:54.772Z,98545.91
2018-12-03T23:12:26.883Z,98547.65
2018-12-03T23:15:00.194Z,98546.89
2018-12-03T23:17:34.113Z,98540.95
2018-12-03T23:20:06.050Z,98546.66
2018-12-03T23:22:38.337Z,98545.11
2018-12-03T23:25:14.098Z,98545.49
2018-12-03T23:27:47.422Z,98539.73
2018-12-03T23:30:20.195Z,98539.50
2018-12-03T23:35:34.450Z,98527.61
2018-12-03T23:38:05.405Z,98519.52
2018-12-03T23:40:36.196Z,98518.81
2018-12-03T23:43:07.069Z,98524.76
2018-12-03T23:45:37.808Z,98519.79
2018-12-03T23:48:08.615Z,98510.00
2018-12-03T23:50:40.243Z,98516.05
2018-12-03T23:53:11.057Z,98524.33
2018-12-03T23:55:42.280Z,98520.64
2018-12-03T23:58:13.174Z,98522.18
